createdAt,value
2023-05-05T00:00:02.511Z,78.2631
2023-05-05T00:01:03.332Z,78.1147
2023-05-05T00:02:04.914Z,78.2393
2023-05-05T00:03:06.764Z,78.7323
2023-05-05T00:04:08.218Z,79.0449
2023-05-05T00:05:09.886Z,78.5181
2023-05-05T00:06:11.593Z,78.1505
2023-05-05T00:07:13.147Z,78.2355
2023-05-05T00:08:14.794Z,78.3703
2023-05-05T00:09:16.424Z,78.4977
2023-05-05T00:10:18.090Z,78.5808
2023-05-05T00:11:19.760Z,78.5051
2023-05-05T00:12:21.331Z,78.1276
2023-05-05T00:13:23.048Z,78.1505
2023-05-05T00:14:24.659Z,78.4730
2023-05-05T00:15:26.307Z,78.8349
2023-05-05T00:16:28.081Z,79.0755
2023-05-05T00:17:29.610Z,78.3544
2023-05-05T00:18:31.276Z,78.1287
2023-05-05T00:19:32.893Z,78.2881
2023-05-05T00:20:34.583Z,78.3770
2023-05-05T00:21:36.244Z,78.5604
2023-05-05T00:22:37.862Z,78.8051
2023-05-05T00:23:39.472Z,78.2519
2023-05-05T00:24:41.217Z,78.1608
2023-05-05T00:25:42.754Z,78.2166
2023-05-05T00:26:44.490Z,78.4807
2023-05-05T00:27:46.152Z,78.8433
2023-05-05T00:28:47.770Z,78.7218
2023-05-05T00:29:49.331Z,77.9885
2023-05-05T00:30:51.070Z,78.1821
2023-05-05T00:31:52.665Z,78.1785
2023-05-05T00:32:54.467Z,78.4000
2023-05-05T00:33:55.908Z,78.5639
2023-05-05T00:34:57.673Z,78.4147
2023-05-05T00:35:59.281Z,77.8188
2023-05-05T00:37:00.929Z,77.7965
2023-05-05T00:38:02.482Z,78.1775
2023-05-05T00:39:04.207Z,78.1606
2023-05-05T00:40:05.897Z,78.4532
2023-05-05T00:41:07.485Z,78.6759
2023-05-05T00:42:10.493Z,78.1569
2023-05-05T00:43:10.692Z,78.0488
2023-05-05T00:44:12.394Z,78.0279
2023-05-05T00:45:15.004Z,78.2312
2023-05-05T00:46:15.704Z,78.5635
2023-05-05T00:47:17.389Z,78.7268
2023-05-05T00:48:19.078Z,78.4952
2023-05-05T00:49:20.666Z,77.9802
2023-05-05T00:50:22.255Z,78.0636
2023-05-05T00:51:23.991Z,78.2111
2023-05-05T00:52:25.601Z,78.5320
2023-05-05T00:53:27.226Z,78.7327
2023-05-05T00:54:28.824Z,78.7982
2023-05-05T00:55:30.504Z,78.1614
2023-05-05T00:56:32.121Z,78.0245
2023-05-05T00:57:33.830Z,78.1630
2023-05-05T00:58:35.355Z,78.6314
2023-05-05T00:59:37.082Z,78.8105
2023-05-05T01:00:38.679Z,78.8136
2023-05-05T01:01:41.491Z,78.6365
2023-05-05T01:02:42.458Z,78.2269
2023-05-05T01:03:43.845Z,77.3468
2023-05-05T01:04:46.139Z,77.9225
2023-05-05T01:05:46.883Z,78.5461
2023-05-05T01:06:48.494Z,78.8947
2023-05-05T01:07:50.130Z,78.7787
2023-05-05T01:08:51.794Z,78.5949
2023-05-05T01:10:04.201Z,78.7969
2023-05-05T01:10:55.089Z,77.5324
2023-05-05T01:11:56.780Z,77.2738
2023-05-05T01:12:58.436Z,77.9801
2023-05-05T01:13:59.967Z,78.5533
2023-05-05T01:15:01.639Z,78.6024
2023-05-05T01:16:03.337Z,78.5462
2023-05-05T01:17:04.951Z,78.4626
2023-05-05T01:18:06.764Z,78.5247
2023-05-05T01:19:08.200Z,77.3756
2023-05-05T01:20:10.013Z,77.2590
2023-05-05T01:21:11.495Z,77.9647
2023-05-05T01:22:13.129Z,78.6725
2023-05-05T01:23:14.786Z,78.7322
2023-05-05T01:24:16.386Z,78.8438
2023-05-05T01:25:18.073Z,78.5310
2023-05-05T01:26:19.691Z,78.5742
2023-05-05T01:27:21.367Z,77.2602
2023-05-05T01:28:23.021Z,77.4270
2023-05-05T01:29:24.643Z,77.9028
2023-05-05T01:30:26.257Z,78.5818
2023-05-05T01:31:28.032Z,78.6912
2023-05-05T01:32:29.635Z,78.5027
2023-05-05T01:33:31.556Z,78.4796
2023-05-05T01:34:32.892Z,78.5022
2023-05-05T01:35:34.515Z,77.0595
2023-05-05T01:36:36.150Z,77.2688
2023-05-05T01:37:37.868Z,78.0353
2023-05-05T01:38:39.498Z,78.6726
2023-05-05T01:39:41.107Z,78.5412
2023-05-05T01:40:42.766Z,78.3395
2023-05-05T01:41:44.439Z,78.4641
2023-05-05T01:42:46.063Z,77.8072
2023-05-05T01:43:47.739Z,76.9873
2023-05-05T01:44:49.241Z,77.3232
2023-05-05T01:45:50.980Z,78.2246
2023-05-05T01:46:52.560Z,78.6650
2023-05-05T01:47:54.273Z,78.7523
2023-05-05T01:48:55.836Z,78.5360
2023-05-05T01:49:57.605Z,78.4518
2023-05-05T01:50:59.158Z,78.0907
2023-05-05T01:52:00.870Z,76.7562
2023-05-05T01:53:02.473Z,77.3163
2023-05-05T01:54:04.958Z,77.8716
2023-05-05T01:55:05.800Z,78.3722
2023-05-05T01:56:07.365Z,78.4294
2023-05-05T01:57:09.010Z,78.4183
2023-05-05T01:58:10.781Z,78.5270
2023-05-05T01:59:12.334Z,77.7387
2023-05-05T02:00:13.997Z,76.7387
2023-05-05T02:01:15.604Z,77.1831
2023-05-05T02:02:17.266Z,77.7515
2023-05-05T02:03:18.969Z,78.5185
2023-05-05T02:04:20.665Z,78.5228
2023-05-05T02:05:22.198Z,78.1782
2023-05-05T02:06:23.820Z,78.5568
2023-05-05T02:07:25.429Z,77.5823
2023-05-05T02:08:27.185Z,76.9523
2023-05-05T02:09:28.754Z,77.1332
2023-05-05T02:10:30.415Z,77.9157
2023-05-05T02:11:32.004Z,78.2771
2023-05-05T02:12:33.719Z,78.3864
2023-05-05T02:13:35.368Z,78.2249
2023-05-05T02:14:36.997Z,78.4608
2023-05-05T02:15:38.678Z,77.8688
2023-05-05T02:16:40.284Z,76.2552
2023-05-05T02:17:41.939Z,76.8200
2023-05-05T02:18:43.565Z,77.8765
2023-05-05T02:19:45.250Z,78.1812
2023-05-05T02:20:46.860Z,78.4644
2023-05-05T02:21:48.561Z,78.1694
2023-05-05T02:22:50.131Z,78.1781
2023-05-05T02:23:51.922Z,78.1222
2023-05-05T02:24:53.467Z,76.2626
2023-05-05T02:25:55.018Z,76.6854
2023-05-05T02:26:56.816Z,77.4208
2023-05-05T02:27:58.319Z,78.1945
2023-05-05T02:29:00.031Z,78.6061
2023-05-05T02:30:01.654Z,78.2339
2023-05-05T02:31:03.294Z,78.0810
2023-05-05T02:32:04.986Z,78.1372
2023-05-05T02:33:06.715Z,76.3638
2023-05-05T02:34:08.226Z,76.8061
2023-05-05T02:35:09.896Z,77.6688
2023-05-05T02:36:11.536Z,78.2115
2023-05-05T02:37:13.214Z,78.2247
2023-05-05T02:38:14.783Z,77.8669
2023-05-05T02:39:16.426Z,78.1912
2023-05-05T02:40:18.082Z,77.9767
2023-05-05T02:41:19.690Z,77.2826
2023-05-05T02:42:21.923Z,76.4297
2023-05-05T02:43:23.124Z,76.9671
2023-05-05T02:44:24.626Z,77.8052
2023-05-05T02:45:26.855Z,78.1612
2023-05-05T02:46:27.963Z,77.7444
2023-05-05T02:47:29.628Z,77.6770
2023-05-05T02:48:31.148Z,77.8326
2023-05-05T02:49:32.885Z,77.5999
2023-05-05T02:50:34.498Z,76.3520
2023-05-05T02:51:36.232Z,76.6305
2023-05-05T02:52:37.824Z,77.6348
2023-05-05T02:53:39.443Z,78.2001
2023-05-05T02:54:41.436Z,78.0002
2023-05-05T02:55:42.753Z,78.0046
2023-05-05T02:56:44.359Z,77.6897
2023-05-05T02:57:46.001Z,77.6779
2023-05-05T02:58:47.620Z,77.0905
2023-05-05T02:59:49.339Z,76.1026
2023-05-05T03:00:50.953Z,77.2493
2023-05-05T03:01:52.736Z,77.8711
2023-05-05T03:02:54.339Z,77.8802
2023-05-05T03:03:55.976Z,77.6563
2023-05-05T03:04:57.556Z,77.2972
2023-05-05T03:05:59.208Z,77.3938
2023-05-05T03:07:00.767Z,77.4630
2023-05-05T03:08:02.533Z,77.1341
2023-05-05T03:09:04.171Z,75.8539
2023-05-05T03:10:06.203Z,76.7001
2023-05-05T03:11:07.386Z,77.2474
2023-05-05T03:12:09.096Z,77.7654
2023-05-05T03:13:10.858Z,77.5336
2023-05-05T03:14:12.369Z,77.4449
2023-05-05T03:15:14.071Z,77.4391
2023-05-05T03:16:15.780Z,77.3159
2023-05-05T03:17:17.310Z,77.2974
2023-05-05T03:18:18.988Z,75.4708
2023-05-05T03:19:20.617Z,76.0104
2023-05-05T03:20:22.302Z,76.9226
2023-05-05T03:21:23.963Z,77.7000
2023-05-05T03:22:25.536Z,77.3997
2023-05-05T03:23:27.175Z,77.3227
2023-05-05T03:24:28.850Z,77.4030
2023-05-05T03:25:30.557Z,77.2279
2023-05-05T03:26:32.487Z,77.0305
2023-05-05T03:27:33.796Z,75.6137
2023-05-05T03:28:35.363Z,75.9832
2023-05-05T03:29:37.096Z,76.9213
2023-05-05T03:30:38.781Z,77.4499
2023-05-05T03:31:41.102Z,77.6650
2023-05-05T03:32:42.082Z,77.2157
2023-05-05T03:33:43.649Z,76.9851
2023-05-05T03:34:45.245Z,77.1785
2023-05-05T03:35:46.976Z,76.7063
2023-05-05T03:36:48.582Z,75.5842
2023-05-05T03:37:50.971Z,76.5188
2023-05-05T03:38:51.816Z,77.4560
2023-05-05T03:39:53.605Z,77.6770
2023-05-05T03:40:55.195Z,77.6550
2023-05-05T03:41:56.853Z,77.1349
2023-05-05T03:42:58.434Z,76.9987
2023-05-05T03:44:00.185Z,77.0537
2023-05-05T03:45:01.733Z,75.5462
2023-05-05T03:46:03.469Z,76.2418
2023-05-05T03:47:06.000Z,76.4949
2023-05-05T03:48:06.752Z,77.2191
2023-05-05T03:49:08.311Z,77.5729
2023-05-05T03:50:10.170Z,77.4041
2023-05-05T03:51:11.636Z,77.2203
2023-05-05T03:52:15.093Z,77.2616
2023-05-05T03:53:14.976Z,75.5651
2023-05-05T03:54:16.552Z,75.2109
2023-05-05T03:55:18.186Z,76.0809
2023-05-05T03:56:19.873Z,77.3446
2023-05-05T03:57:21.468Z,77.4061
2023-05-05T03:58:24.011Z,77.5789
2023-05-05T03:59:24.741Z,77.5682
2023-05-05T04:00:26.464Z,77.3867
2023-05-05T04:01:28.859Z,76.0735
2023-05-05T04:02:29.855Z,75.3493
2023-05-05T04:03:31.651Z,76.3598
2023-05-05T04:04:33.154Z,77.1714
2023-05-05T04:05:34.653Z,77.3394
2023-05-05T04:06:36.293Z,77.6663
2023-05-05T04:07:37.927Z,77.5655
2023-05-05T04:08:40.068Z,77.2253
2023-05-05T04:09:41.959Z,76.1477
2023-05-05T04:10:42.907Z,75.4454
2023-05-05T04:11:44.545Z,76.3095
2023-05-05T04:12:46.356Z,76.7860
2023-05-05T04:13:47.871Z,77.3921
2023-05-05T04:14:49.537Z,77.5340
2023-05-05T04:15:51.104Z,77.5831
2023-05-05T04:16:52.716Z,77.1429
2023-05-05T04:17:55.142Z,75.4665
2023-05-05T04:18:56.061Z,75.4825
2023-05-05T04:19:57.720Z,76.5859
2023-05-05T04:20:59.306Z,77.3068
2023-05-05T04:22:00.971Z,77.4677
2023-05-05T04:23:02.643Z,77.5498
2023-05-05T04:24:04.278Z,77.1987
2023-05-05T04:25:05.964Z,76.1867
2023-05-05T04:26:07.514Z,74.9221
2023-05-05T04:27:09.192Z,75.9591
2023-05-05T04:28:10.852Z,77.0429
2023-05-05T04:29:12.523Z,77.2448
2023-05-05T04:30:14.143Z,77.6697
2023-05-05T04:31:15.753Z,77.7928
2023-05-05T04:32:17.296Z,77.4394
2023-05-05T04:33:19.018Z,75.2372
2023-05-05T04:34:20.640Z,75.6038
2023-05-05T04:35:22.300Z,76.3620
2023-05-05T04:36:23.936Z,77.2925
2023-05-05T04:37:25.520Z,77.4591
2023-05-05T04:38:27.301Z,77.7244
2023-05-05T04:39:29.535Z,77.9170
2023-05-05T04:40:30.481Z,76.3477
2023-05-05T04:41:32.049Z,75.3216
2023-05-05T04:42:33.701Z,76.0278
2023-05-05T04:43:35.400Z,77.2065
2023-05-05T04:44:37.474Z,77.5138
2023-05-05T04:45:38.705Z,77.5440
2023-05-05T04:46:40.326Z,77.9520
2023-05-05T04:47:42.045Z,76.7050
2023-05-05T04:48:43.590Z,75.3628
2023-05-05T04:49:45.476Z,75.9551
2023-05-05T04:50:46.971Z,76.5936
2023-05-05T04:51:48.547Z,77.1349
2023-05-05T04:52:51.392Z,77.4990
2023-05-05T04:53:53.091Z,77.9508
2023-05-05T04:54:53.632Z,77.4803
2023-05-05T04:55:55.286Z,75.2130
2023-05-05T04:56:56.918Z,75.2228
2023-05-05T04:57:58.584Z,76.3293
2023-05-05T04:59:00.206Z,76.9402
2023-05-05T05:00:01.893Z,77.5527
2023-05-05T05:01:03.525Z,77.8945
2023-05-05T05:02:05.246Z,77.8092
2023-05-05T05:03:06.854Z,76.0992
2023-05-05T05:04:08.422Z,75.0744
2023-05-05T05:05:10.094Z,76.4155
2023-05-05T05:06:11.723Z,77.0949
2023-05-05T05:07:13.336Z,77.2412
2023-05-05T05:08:15.087Z,77.8192
2023-05-05T05:09:16.575Z,78.0599
2023-05-05T05:10:18.342Z,76.7862
2023-05-05T05:11:19.974Z,74.8649
2023-05-05T05:12:21.563Z,75.3611
2023-05-05T05:13:23.269Z,76.1719
2023-05-05T05:14:24.898Z,77.0777
2023-05-05T05:15:26.463Z,77.7617
2023-05-05T05:16:28.351Z,78.2674
2023-05-05T05:17:29.858Z,78.2817
2023-05-05T05:18:31.521Z,76.0199
2023-05-05T05:19:34.069Z,74.9908
2023-05-05T05:20:35.092Z,76.1424
2023-05-05T05:21:36.425Z,76.7681
2023-05-05T05:22:38.009Z,77.6190
2023-05-05T05:23:39.658Z,78.0169
2023-05-05T05:24:41.363Z,78.3652
2023-05-05T05:25:43.897Z,77.2060
2023-05-05T05:26:44.690Z,75.4237
2023-05-05T05:27:50.136Z,75.6661
2023-05-05T05:28:47.856Z,76.3827
2023-05-05T05:29:49.558Z,77.3435
2023-05-05T05:30:51.228Z,77.8181
2023-05-05T05:31:52.803Z,78.2952
2023-05-05T05:32:54.544Z,78.0972
2023-05-05T05:33:56.191Z,75.6941
2023-05-05T05:34:57.678Z,75.2095
2023-05-05T05:35:59.470Z,76.0646
2023-05-05T05:37:01.076Z,76.6195
2023-05-05T05:38:02.700Z,77.3104
2023-05-05T05:39:04.256Z,78.0801
2023-05-05T05:40:06.032Z,78.2680
2023-05-05T05:41:07.535Z,76.1676
2023-05-05T05:42:10.507Z,75.2724
2023-05-05T05:43:10.923Z,76.1496
2023-05-05T05:44:12.522Z,76.9704
2023-05-05T05:45:14.094Z,77.4470
2023-05-05T05:46:15.886Z,77.8330
2023-05-05T05:47:17.500Z,77.3797
2023-05-05T05:48:20.104Z,75.5025
2023-05-05T05:49:20.598Z,74.7863
2023-05-05T05:50:22.673Z,75.7581
2023-05-05T05:51:24.267Z,76.3910
2023-05-05T05:52:25.978Z,77.2880
2023-05-05T05:53:28.665Z,77.7334
2023-05-05T05:54:29.666Z,75.6601
2023-05-05T05:55:30.492Z,74.6021
2023-05-05T05:56:32.215Z,75.0268
2023-05-05T05:57:34.167Z,76.0695
2023-05-05T05:58:35.413Z,76.6024
2023-05-05T05:59:37.121Z,77.5120
2023-05-05T06:00:38.950Z,76.4578
2023-05-05T06:01:40.445Z,75.3716
2023-05-05T06:02:42.296Z,76.3321
2023-05-05T06:03:43.712Z,76.1014
2023-05-05T06:04:45.285Z,76.4003
2023-05-05T06:05:46.886Z,76.9570
2023-05-05T06:06:48.675Z,77.0798
2023-05-05T06:07:50.229Z,77.0027
2023-05-05T06:08:51.877Z,76.7573
2023-05-05T06:09:53.503Z,74.2371
2023-05-05T06:10:55.272Z,74.7712
2023-05-05T06:11:56.831Z,75.7650
2023-05-05T06:12:58.578Z,75.6826
2023-05-05T06:14:00.071Z,76.1607
2023-05-05T06:15:01.727Z,76.5840
2023-05-05T06:16:03.395Z,76.6708
2023-05-05T06:17:05.085Z,76.7868
2023-05-05T06:18:06.702Z,76.8302
2023-05-05T06:19:08.349Z,76.9274
2023-05-05T06:20:10.058Z,76.8246
2023-05-05T06:21:11.630Z,76.8956
2023-05-05T06:22:13.348Z,76.8564
2023-05-05T06:23:14.886Z,76.9089
2023-05-05T06:24:16.474Z,76.0920
2023-05-05T06:25:18.180Z,75.6481
2023-05-05T06:26:19.818Z,76.1050
2023-05-05T06:27:21.446Z,76.2565
2023-05-05T06:28:23.612Z,76.1931
2023-05-05T06:29:24.694Z,76.2302
2023-05-05T06:30:26.413Z,76.2005
2023-05-05T06:31:27.996Z,76.0866
2023-05-05T06:32:30.164Z,74.5536
2023-05-05T06:33:31.328Z,70.9506
2023-05-05T06:34:32.970Z,72.3138
2023-05-05T06:35:34.596Z,72.9071
2023-05-05T06:36:36.306Z,73.6285
2023-05-05T06:37:37.868Z,74.3427
2023-05-05T06:38:39.571Z,74.1417
2023-05-05T06:39:41.135Z,74.7280
2023-05-05T06:40:42.841Z,72.1361
2023-05-05T06:41:44.478Z,68.3970
2023-05-05T06:42:46.160Z,69.9560
2023-05-05T06:43:48.097Z,71.0185
2023-05-05T06:44:49.469Z,71.1335
2023-05-05T06:45:50.950Z,72.3088
2023-05-05T06:46:52.731Z,72.7337
2023-05-05T06:47:54.295Z,71.5636
2023-05-05T06:48:56.118Z,66.8385
2023-05-05T06:49:57.502Z,67.7181
2023-05-05T06:50:59.201Z,69.6327
2023-05-05T06:52:00.799Z,70.7351
2023-05-05T06:53:02.481Z,69.9094
2023-05-05T06:54:04.152Z,70.8979
2023-05-05T06:55:05.742Z,69.7995
2023-05-05T06:56:07.405Z,65.7821
2023-05-05T06:57:09.054Z,67.1115
2023-05-05T06:58:11.600Z,68.8695
2023-05-05T06:59:12.308Z,70.4173
2023-05-05T07:00:13.898Z,69.3096
2023-05-05T07:01:15.720Z,69.0475
2023-05-05T07:02:17.211Z,68.5116
2023-05-05T07:03:18.914Z,65.3868
2023-05-05T07:04:20.561Z,66.9471
2023-05-05T07:05:22.244Z,68.5753
2023-05-05T07:06:23.765Z,69.2350
2023-05-05T07:07:25.451Z,67.9309
2023-05-05T07:08:27.066Z,67.1301
2023-05-05T07:09:28.743Z,65.5728
2023-05-05T07:10:30.356Z,66.3643
2023-05-05T07:11:31.956Z,68.3742
2023-05-05T07:12:33.668Z,69.7572
2023-05-05T07:13:35.249Z,67.5647
2023-05-05T07:14:37.019Z,65.3608
2023-05-05T07:15:38.684Z,65.4673
2023-05-05T07:16:40.337Z,67.3333
2023-05-05T07:17:41.879Z,68.7405
2023-05-05T07:18:43.586Z,68.3702
2023-05-05T07:19:45.248Z,65.3801
2023-05-05T07:20:46.965Z,65.0863
2023-05-05T07:21:48.437Z,66.0192
2023-05-05T07:22:50.107Z,67.2247
2023-05-05T07:23:52.091Z,68.3535
2023-05-05T07:24:53.462Z,66.0535
2023-05-05T07:25:54.998Z,64.4188
2023-05-05T07:26:56.644Z,65.4671
2023-05-05T07:27:58.272Z,67.0794
2023-05-05T07:29:00.008Z,68.2744
2023-05-05T07:30:02.073Z,66.7417
2023-05-05T07:31:03.263Z,65.4309
2023-05-05T07:32:04.921Z,66.5015
2023-05-05T07:33:06.554Z,68.0467
2023-05-05T07:34:08.519Z,68.6802
2023-05-05T07:35:09.789Z,67.6585
2023-05-05T07:36:11.519Z,66.0090
2023-05-05T07:37:13.104Z,66.5810
2023-05-05T07:38:15.602Z,67.3558
2023-05-05T07:39:17.127Z,67.3382
2023-05-05T07:40:18.095Z,66.9119
2023-05-05T07:41:19.651Z,66.5809
2023-05-05T07:42:21.422Z,66.0774
2023-05-05T07:43:23.015Z,67.1250
2023-05-05T07:44:24.658Z,68.4304
2023-05-05T07:45:26.268Z,67.0913
2023-05-05T07:46:28.016Z,66.3789
2023-05-05T07:47:29.587Z,67.6366
2023-05-05T07:48:31.193Z,68.8495
2023-05-05T07:49:32.811Z,68.3398
2023-05-05T07:50:34.505Z,66.5802
2023-05-05T07:51:36.051Z,66.0261
2023-05-05T07:52:45.313Z,66.6870
2023-05-05T07:53:39.304Z,68.5346
2023-05-05T07:54:40.960Z,69.1676
2023-05-05T07:55:43.033Z,67.0576
2023-05-05T07:56:44.569Z,66.0454
2023-05-05T07:57:45.963Z,66.0667
2023-05-05T07:58:48.488Z,67.7141
2023-05-05T07:59:49.226Z,68.6020
2023-05-05T08:00:50.999Z,68.1074
2023-05-05T08:01:54.791Z,66.3454
2023-05-05T08:02:54.322Z,65.7309
2023-05-05T08:03:55.995Z,66.6741
2023-05-05T08:04:57.596Z,68.0601
2023-05-05T08:05:59.305Z,67.2256
2023-05-05T08:07:00.877Z,66.2945
2023-05-05T08:08:02.567Z,65.7589
2023-05-05T08:09:04.159Z,66.3328
2023-05-05T08:10:05.832Z,67.4006
2023-05-05T08:11:07.479Z,67.2174
2023-05-05T08:12:09.896Z,65.6470
2023-05-05T08:13:10.632Z,65.2590
2023-05-05T08:14:12.278Z,65.9510
2023-05-05T08:15:13.924Z,67.7617
2023-05-05T08:16:15.583Z,67.0240
2023-05-05T08:17:18.144Z,65.2067
2023-05-05T08:18:18.861Z,64.6146
2023-05-05T08:19:28.600Z,66.7129
2023-05-05T08:20:22.148Z,67.1999
2023-05-05T08:21:23.793Z,65.1941
2023-05-05T08:22:25.421Z,64.2644
2023-05-05T08:23:27.048Z,64.4589
2023-05-05T08:24:28.640Z,66.4400
2023-05-05T08:25:30.283Z,65.5504
2023-05-05T08:26:31.933Z,64.2584
2023-05-05T08:27:33.625Z,64.0548
2023-05-05T08:28:35.307Z,65.0581
2023-05-05T08:29:36.827Z,66.2598
2023-05-05T08:30:38.434Z,65.1364
2023-05-05T08:31:40.320Z,64.1331
2023-05-05T08:32:41.871Z,64.1461
2023-05-05T08:33:43.450Z,66.1899
2023-05-05T08:34:45.014Z,66.2852
2023-05-05T08:35:46.706Z,64.1075
2023-05-05T08:36:48.360Z,63.7329
2023-05-05T08:37:49.964Z,63.8017
2023-05-05T08:38:51.593Z,65.6207
2023-05-05T08:39:53.202Z,65.1620
2023-05-05T08:40:54.953Z,63.6548
2023-05-05T08:41:56.590Z,63.0803
2023-05-05T08:42:58.230Z,63.6610
2023-05-05T08:43:59.779Z,65.6346
2023-05-05T08:45:01.425Z,63.8349
2023-05-05T08:46:03.163Z,63.1802
2023-05-05T08:47:04.864Z,62.7469
2023-05-05T08:48:06.460Z,63.8847
2023-05-05T08:49:08.087Z,64.8371
2023-05-05T08:50:09.681Z,62.6457
2023-05-05T08:51:11.256Z,62.2350
2023-05-05T08:52:13.024Z,62.5700
2023-05-05T08:53:14.600Z,62.7751
2023-05-05T08:54:16.222Z,62.6211
2023-05-05T08:55:17.942Z,62.2019
2023-05-05T08:56:19.467Z,61.8752
2023-05-05T08:57:21.185Z,62.3984
2023-05-05T08:58:23.015Z,63.0506
2023-05-05T08:59:24.403Z,62.6157
2023-05-05T09:00:26.095Z,61.9897
2023-05-05T09:01:27.710Z,62.9612
2023-05-05T09:02:29.474Z,63.0537
2023-05-05T09:03:31.065Z,62.3324
2023-05-05T09:04:32.656Z,62.1609
2023-05-05T09:05:34.253Z,62.5263
2023-05-05T09:06:35.924Z,63.2400
2023-05-05T09:07:37.554Z,62.1616
2023-05-05T09:08:39.233Z,61.9948
2023-05-05T09:09:40.818Z,62.3148
2023-05-05T09:10:42.495Z,63.1100
2023-05-05T09:11:44.147Z,62.7633
2023-05-05T09:12:45.818Z,62.3920
2023-05-05T09:13:48.001Z,62.2197
2023-05-05T09:14:49.109Z,63.0169
2023-05-05T09:15:50.685Z,64.3661
2023-05-05T09:16:52.265Z,63.0578
2023-05-05T09:17:53.982Z,62.3022
2023-05-05T09:18:55.673Z,62.4605
2023-05-05T09:19:57.361Z,63.1348
2023-05-05T09:20:59.573Z,63.7007
2023-05-05T09:22:00.550Z,62.5553
2023-05-05T09:23:02.204Z,62.6493
2023-05-05T09:24:08.216Z,63.5322
2023-05-05T09:25:05.682Z,63.2996
2023-05-05T09:26:07.072Z,62.9699
2023-05-05T09:27:08.785Z,62.5379
2023-05-05T09:28:10.428Z,63.7852
2023-05-05T09:29:12.079Z,63.5712
2023-05-05T09:30:13.719Z,62.9923
2023-05-05T09:31:15.445Z,62.9972
2023-05-05T09:32:16.992Z,63.5761
2023-05-05T09:33:18.623Z,63.7216
2023-05-05T09:34:20.342Z,63.3006
2023-05-05T09:35:22.039Z,63.1747
2023-05-05T09:36:24.233Z,64.3841
2023-05-05T09:37:25.216Z,64.4067
2023-05-05T09:38:26.789Z,63.2564
2023-05-05T09:39:28.548Z,63.2374
2023-05-05T09:40:30.138Z,63.5806
2023-05-05T09:41:31.731Z,64.7129
2023-05-05T09:42:33.407Z,63.9962
2023-05-05T09:43:35.096Z,63.5447
2023-05-05T09:44:36.736Z,63.1936
2023-05-05T09:45:38.722Z,64.3238
2023-05-05T09:46:40.049Z,64.2125
2023-05-05T09:47:41.612Z,63.3342
2023-05-05T09:48:43.271Z,63.1381
2023-05-05T09:49:45.688Z,64.0201
2023-05-05T09:50:46.667Z,64.7093
2023-05-05T09:51:49.010Z,63.6523
2023-05-05T09:52:49.807Z,63.0023
2023-05-05T09:53:51.537Z,63.6066
2023-05-05T09:54:53.117Z,65.2326
2023-05-05T09:55:54.835Z,64.2591
2023-05-05T09:56:56.585Z,63.3437
2023-05-05T09:57:58.084Z,63.3913
2023-05-05T09:58:59.678Z,63.8345
2023-05-05T10:00:01.366Z,63.6656
2023-05-05T10:01:03.036Z,63.0621
2023-05-05T10:02:04.709Z,62.9761
2023-05-05T10:03:06.330Z,63.2410
2023-05-05T10:04:07.881Z,63.5326
2023-05-05T10:05:09.551Z,62.6971
2023-05-05T10:06:11.241Z,62.7535
2023-05-05T10:07:12.808Z,63.6409
2023-05-05T10:08:14.454Z,63.6778
2023-05-05T10:09:16.127Z,62.8707
2023-05-05T10:10:17.786Z,62.8957
2023-05-05T10:11:19.393Z,62.7275
2023-05-05T10:12:20.974Z,62.9711
2023-05-05T10:13:22.741Z,62.9064
2023-05-05T10:14:24.260Z,62.4502
2023-05-05T10:15:25.989Z,62.3515
2023-05-05T10:16:29.077Z,63.1344
2023-05-05T10:17:29.352Z,64.0818
2023-05-05T10:18:30.883Z,63.1105
2023-05-05T10:19:32.507Z,62.4484
2023-05-05T10:20:34.260Z,62.5017
2023-05-05T10:21:36.297Z,63.7241
2023-05-05T10:22:37.497Z,63.1552
2023-05-05T10:23:39.090Z,62.4505
2023-05-05T10:24:40.696Z,62.1897
2023-05-05T10:25:42.375Z,63.3355
2023-05-05T10:26:44.089Z,63.0531
2023-05-05T10:27:45.659Z,62.1216
2023-05-05T10:28:47.251Z,62.3220
2023-05-05T10:29:48.949Z,62.6704
2023-05-05T10:30:50.604Z,63.0289
2023-05-05T10:31:54.380Z,61.9730
2023-05-05T10:33:04.034Z,61.7583
2023-05-05T10:33:55.730Z,62.1565
2023-05-05T10:34:57.163Z,63.0147
2023-05-05T10:35:58.874Z,62.3608
2023-05-05T10:37:00.376Z,62.2507
2023-05-05T10:38:02.178Z,62.4811
2023-05-05T10:39:03.612Z,62.9422
2023-05-05T10:40:05.464Z,62.4169
2023-05-05T10:41:06.958Z,61.5881
2023-05-05T10:42:08.622Z,61.5855
2023-05-05T10:43:10.263Z,62.3583
2023-05-05T10:44:11.842Z,61.8382
2023-05-05T10:45:13.484Z,61.3066
2023-05-05T10:46:15.215Z,61.3841
2023-05-05T10:47:16.818Z,61.7458
2023-05-05T10:48:18.441Z,61.4111
2023-05-05T10:49:20.068Z,60.8996
2023-05-05T10:50:21.703Z,60.9228
2023-05-05T10:51:38.640Z,61.6510
2023-05-05T10:52:25.109Z,61.6745
2023-05-05T10:53:26.642Z,61.0880
2023-05-05T10:54:28.345Z,60.7953
2023-05-05T10:55:29.912Z,61.2265
2023-05-05T10:56:31.656Z,62.1218
2023-05-05T10:57:33.704Z,61.1640
2023-05-05T10:58:43.685Z,61.4109
2023-05-05T10:59:36.528Z,61.3345
2023-05-05T11:00:38.240Z,62.1556
2023-05-05T11:01:39.863Z,61.1355
2023-05-05T11:02:41.712Z,60.8357
2023-05-05T11:03:43.040Z,61.3045
2023-05-05T11:04:44.670Z,61.4052
2023-05-05T11:05:46.354Z,60.4044
2023-05-05T11:06:48.041Z,60.2467
2023-05-05T11:07:50.194Z,60.3528
2023-05-05T11:08:51.247Z,60.6757
2023-05-05T11:09:52.927Z,59.9576
2023-05-05T11:10:55.116Z,60.0103
2023-05-05T11:11:56.315Z,60.5849
2023-05-05T11:12:57.999Z,60.9903
2023-05-05T11:13:59.544Z,59.8912
2023-05-05T11:15:01.138Z,59.1774
2023-05-05T11:16:02.749Z,59.5224
2023-05-05T11:17:04.468Z,60.3738
2023-05-05T11:18:07.845Z,60.2637
2023-05-05T11:19:07.762Z,59.6039
2023-05-05T11:20:09.650Z,59.6311
2023-05-05T11:21:11.062Z,59.8249
2023-05-05T11:22:13.245Z,60.4194
2023-05-05T11:23:16.607Z,60.0446
2023-05-05T11:24:16.665Z,59.9406
2023-05-05T11:25:17.617Z,60.1413
2023-05-05T11:26:19.212Z,60.3835
2023-05-05T11:27:20.952Z,60.1819
2023-05-05T11:28:22.546Z,59.7908
2023-05-05T11:29:24.182Z,59.7033
2023-05-05T11:30:25.795Z,60.3449
2023-05-05T11:31:27.521Z,60.1553
2023-05-05T11:32:29.156Z,59.8295
2023-05-05T11:33:30.857Z,60.0281
2023-05-05T11:34:32.383Z,60.1792
2023-05-05T11:35:34.107Z,60.2330
2023-05-05T11:36:35.621Z,59.8484
2023-05-05T11:37:37.725Z,59.8707
2023-05-05T11:38:39.028Z,60.4593
2023-05-05T11:39:40.639Z,60.5424
2023-05-05T11:40:42.206Z,60.0897
2023-05-05T11:41:43.866Z,60.7077
2023-05-05T11:42:45.691Z,61.4318
2023-05-05T11:43:47.196Z,60.9191
2023-05-05T11:44:48.782Z,60.7063
2023-05-05T11:45:50.438Z,60.8191
2023-05-05T11:46:52.052Z,61.0067
2023-05-05T11:47:53.780Z,60.3004
2023-05-05T11:48:55.665Z,59.6320
2023-05-05T11:49:57.081Z,59.5738
2023-05-05T11:50:58.631Z,59.6057
2023-05-05T11:52:00.297Z,59.0858
2023-05-05T11:53:02.021Z,58.5226
2023-05-05T11:54:03.700Z,58.2507
2023-05-05T11:55:05.350Z,58.6313
2023-05-05T11:56:07.013Z,57.9555
2023-05-05T11:57:08.655Z,57.8119
2023-05-05T11:58:10.393Z,57.5104
2023-05-05T11:59:11.946Z,57.5336
2023-05-05T12:00:13.564Z,57.7548
2023-05-05T12:01:15.212Z,57.4757
2023-05-05T12:02:16.968Z,57.4218
2023-05-05T12:03:18.577Z,57.3123
2023-05-05T12:04:20.211Z,57.2367
2023-05-05T12:05:21.905Z,57.5595
2023-05-05T12:06:23.374Z,59.3637
2023-05-05T12:07:25.150Z,58.3504
2023-05-05T12:08:26.698Z,58.8334
2023-05-05T12:09:28.345Z,59.2237
2023-05-05T12:10:29.971Z,59.2034
2023-05-05T12:11:31.656Z,59.4249
2023-05-05T12:12:34.082Z,60.1161
2023-05-05T12:13:35.777Z,59.7319
2023-05-05T12:14:36.563Z,59.7210
2023-05-05T12:15:38.222Z,59.9858
2023-05-05T12:16:40.002Z,60.8206
2023-05-05T12:17:41.469Z,60.7421
2023-05-05T12:18:43.397Z,60.1391
2023-05-05T12:19:44.865Z,60.9128
2023-05-05T12:20:46.457Z,62.7581
2023-05-05T12:21:48.074Z,61.3039
2023-05-05T12:22:49.674Z,60.9924
2023-05-05T12:23:51.299Z,61.1896
2023-05-05T12:24:54.927Z,61.4464